Time;durP1;ratioP1;P1;durP2;ratioP2;P2;SDS_P1;SDS_P2;PMS_P1;PMS_P2;Temp;Humidity;BMP_temperature;BMP_pressure;BME280_temperature;BME280_humidity;BME280_pressure;Samples;Min_cycle;Max_cycle;Signal;HPM_P1;HPM_P2
2023/05/09 00:00:40;;;;;;;32.80;19.50;;;;;;;;;;110868;1250;22316;-76
2023/05/09 00:03:13;;;;;;;21.60;13.20;;;;;;;;;;110880;1250;22332;-78
2023/05/09 00:05:40;;;;;;;23.50;13.80;;;;;;;;;;110877;1249;22498;-76
2023/05/09 00:08:06;;;;;;;22.70;11.80;;;;;;;;;;110736;1251;22143;-76
2023/05/09 00:10:32;;;;;;;23.30;13.30;;;;;;;;;;110891;1250;22353;-76
2023/05/09 00:12:59;;;;;;;28.00;14.20;;;;;;;;;;110869;1250;22351;-78
2023/05/09 00:15:26;;;;;;;30.10;17.70;;;;;;;;;;110849;1250;22188;-76
2023/05/09 00:17:53;;;;;;;23.60;14.80;;;;;;;;;;107769;1251;22518;-75
2023/05/09 00:20:19;;;;;;;27.40;15.70;;;;;;;;;;107743;1251;23434;-78
2023/05/09 00:22:45;;;;;;;28.60;16.60;;;;;;;;;;107800;1250;22568;-80
2023/05/09 00:25:12;;;;;;;25.70;16.00;;;;;;;;;;107728;1250;24860;-76
2023/05/09 00:27:38;;;;;;;26.60;14.80;;;;;;;;;;107711;1249;22533;-79
2023/05/09 00:30:05;;;;;;;24.30;15.50;;;;;;;;;;107747;1251;24245;-78
2023/05/09 00:32:32;;;;;;;27.70;16.50;;;;;;;;;;107711;1253;22567;-79
2023/05/09 00:34:58;;;;;;;27.40;16.00;;;;;;;;;;107737;1251;22523;-78
2023/05/09 00:37:25;;;;;;;31.10;19.00;;;;;;;;;;107706;1251;24466;-77
2023/05/09 00:39:51;;;;;;;34.20;23.20;;;;;;;;;;107687;1253;22570;-77
2023/05/09 00:42:17;;;;;;;30.90;19.10;;;;;;;;;;107709;1249;24199;-76
2023/05/09 00:44:44;;;;;;;26.20;16.40;;;;;;;;;;107682;1251;23150;-79
2023/05/09 00:47:10;;;;;;;26.00;17.20;;;;;;;;;;107683;1253;22518;-78
2023/05/09 00:49:36;;;;;;;31.90;16.70;;;;;;;;;;107730;1251;22526;-76
2023/05/09 00:52:03;;;;;;;20.40;13.30;;;;;;;;;;107687;1251;24178;-79
2023/05/09 00:54:30;;;;;;;22.40;13.20;;;;;;;;;;107712;1250;24273;-76
2023/05/09 00:56:56;;;;;;;22.00;14.00;;;;;;;;;;107682;1249;23235;-79
2023/05/09 00:59:22;;;;;;;24.90;12.40;;;;;;;;;;107676;1250;22522;-77
2023/05/09 01:01:49;;;;;;;24.30;14.30;;;;;;;;;;107652;1251;22836;-77
2023/05/09 01:04:15;;;;;;;25.20;15.80;;;;;;;;;;107675;1250;24308;-79
2023/05/09 01:06:42;;;;;;;25.90;14.80;;;;;;;;;;107679;1249;22522;-79
2023/05/09 01:09:24;;;;;;;29.00;16.00;;;;;;;;;;107716;1250;22525;-76
2023/05/09 01:12:02;;;;;;;29.50;13.80;;;;;;;;;;107682;1249;26400;-76
2023/05/09 01:14:32;;;;;;;21.70;13.80;;;;;;;;;;107734;1253;22523;-79
2023/05/09 01:17:14;;;;;;;27.30;14.80;;;;;;;;;;107680;1251;22591;-76
2023/05/09 01:19:56;;;;;;;24.50;14.40;;;;;;;;;;107665;1253;23655;-79
2023/05/09 01:22:25;;;;;;;30.50;17.30;;;;;;;;;;107704;1250;25300;-76
2023/05/09 01:24:51;;;;;;;;;;;;;;;;;;107691;1250;26480;-78
2023/05/09 01:27:38;;;;;;;26.20;16.50;;;;;;;;;;107739;1253;25271;-78
2023/05/09 01:30:05;;;;;;;26.60;14.80;;;;;;;;;;107692;1251;22560;-78
2023/05/09 01:32:32;;;;;;;24.70;15.10;;;;;;;;;;110852;1250;23073;-76
2023/05/09 01:34:59;;;;;;;25.40;13.40;;;;;;;;;;110689;1250;22385;-77
2023/05/09 01:37:32;;;;;;;19.40;13.10;;;;;;;;;;110857;1249;22390;-78
2023/05/09 01:40:11;;;;;;;24.10;14.80;;;;;;;;;;110723;1250;22759;-77
2023/05/09 01:42:56;;;;;;;27.70;19.10;;;;;;;;;;110880;1250;22236;-77
2023/05/09 01:45:23;;;;;;;25.70;16.30;;;;;;;;;;110844;1250;23556;-77
2023/05/09 01:47:49;;;;;;;23.50;13.90;;;;;;;;;;110756;1250;23121;-79
2023/05/09 01:50:16;;;;;;;22.50;14.70;;;;;;;;;;110664;1250;22355;-77
2023/05/09 01:52:42;;;;;;;25.40;14.60;;;;;;;;;;110861;1249;22410;-77
2023/05/09 01:55:09;;;;;;;25.30;14.50;;;;;;;;;;110713;1250;22310;-79
2023/05/09 01:57:35;;;;;;;27.10;16.50;;;;;;;;;;110833;1250;22224;-77
2023/05/09 02:00:01;;;;;;;28.70;18.60;;;;;;;;;;110733;1249;164888;-77
2023/05/09 02:02:28;;;;;;;24.80;15.20;;;;;;;;;;110736;1250;22265;-79
2023/05/09 02:04:54;;;;;;;25.10;17.40;;;;;;;;;;110849;1249;22206;-78
2023/05/09 02:07:21;;;;;;;27.40;17.50;;;;;;;;;;110876;1250;22916;-77
2023/05/09 02:09:47;;;;;;;27.70;17.40;;;;;;;;;;110688;1255;22485;-77
2023/05/09 02:12:13;;;;;;;36.60;22.70;;;;;;;;;;110905;1250;22230;-77
2023/05/09 02:14:40;;;;;;;28.10;16.30;;;;;;;;;;110871;1250;22639;-77
2023/05/09 02:17:08;;;;;;;24.10;14.20;;;;;;;;;;110841;1250;22322;-78
2023/05/09 02:19:34;;;;;;;29.20;17.40;;;;;;;;;;110736;1250;22295;-77
2023/05/09 02:22:01;;;;;;;32.90;17.10;;;;;;;;;;110837;1250;22943;-76
2023/05/09 02:24:27;;;;;;;35.70;17.80;;;;;;;;;;110838;1249;22215;-79
2023/05/09 02:26:54;;;;;;;31.60;18.60;;;;;;;;;;110734;1251;22243;-79
2023/05/09 02:29:20;;;;;;;26.80;16.70;;;;;;;;;;107877;1253;22980;-78
2023/05/09 02:31:47;;;;;;;29.80;17.10;;;;;;;;;;107668;1251;22518;-79
2023/05/09 02:34:13;;;;;;;23.30;13.60;;;;;;;;;;107692;1253;24177;-76
2023/05/09 02:36:39;;;;;;;28.40;17.00;;;;;;;;;;107733;1253;22862;-78
2023/05/09 02:39:06;;;;;;;35.50;22.10;;;;;;;;;;107685;1250;22673;-78
2023/05/09 02:41:32;;;;;;;31.90;22.60;;;;;;;;;;107672;1251;22553;-80
2023/05/09 02:43:58;;;;;;;33.30;21.00;;;;;;;;;;107791;1251;25316;-79
2023/05/09 02:46:25;;;;;;;33.40;19.90;;;;;;;;;;107713;1250;22525;-79
2023/05/09 02:48:51;;;;;;;27.30;16.90;;;;;;;;;;107727;1251;27267;-79
2023/05/09 02:51:17;;;;;;;32.70;17.50;;;;;;;;;;107662;1251;22632;-76
2023/05/09 02:53:44;;;;;;;30.00;18.80;;;;;;;;;;107721;1253;25441;-76
2023/05/09 02:56:10;;;;;;;31.20;17.70;;;;;;;;;;110333;1250;22063;-79
2023/05/09 02:58:37;;;;;;;28.40;17.00;;;;;;;;;;110848;1250;22463;-79
2023/05/09 03:01:03;;;;;;;24.00;14.30;;;;;;;;;;110869;1248;22502;-77
2023/05/09 03:03:32;;;;;;;26.50;13.80;;;;;;;;;;108550;1252;25353;-78
2023/05/09 03:05:59;;;;;;;28.10;14.30;;;;;;;;;;107886;1252;22525;-76
2023/05/09 03:08:25;;;;;;;26.90;15.60;;;;;;;;;;107861;1253;26445;-79
2023/05/09 03:10:51;;;;;;;23.70;16.30;;;;;;;;;;107883;1253;25321;-79
2023/05/09 03:13:18;;;;;;;31.40;16.80;;;;;;;;;;107883;1248;22535;-77
2023/05/09 03:15:44;;;;;;;32.80;20.90;;;;;;;;;;107838;1252;24210;-79
2023/05/09 03:18:11;;;;;;;41.00;23.00;;;;;;;;;;107890;1248;22507;-76
2023/05/09 03:20:37;;;;;;;38.80;20.10;;;;;;;;;;107860;1248;22567;-76
2023/05/09 03:23:03;;;;;;;33.20;20.10;;;;;;;;;;107701;1248;25377;-76
2023/05/09 03:25:30;;;;;;;33.90;22.00;;;;;;;;;;107894;1248;22521;-76
2023/05/09 03:27:56;;;;;;;32.90;20.90;;;;;;;;;;107857;1253;22608;-76
2023/05/09 03:30:23;;;;;;;35.70;18.20;;;;;;;;;;107692;1251;25217;-76
2023/05/09 03:32:49;;;;;;;31.40;18.00;;;;;;;;;;107634;1251;22559;-79
2023/05/09 03:35:15;;;;;;;41.20;21.90;;;;;;;;;;108707;1249;22403;-79
2023/05/09 03:37:42;;;;;;;25.90;16.30;;;;;;;;;;108880;1251;22534;-79
2023/05/09 03:40:08;;;;;;;31.50;18.00;;;;;;;;;;107641;1250;40143;-76
2023/05/09 03:42:34;;;;;;;36.50;22.80;;;;;;;;;;107712;1253;23003;-76
2023/05/09 03:45:01;;;;;;;36.20;23.60;;;;;;;;;;107721;1250;22574;-76
2023/05/09 03:47:27;;;;;;;42.70;27.10;;;;;;;;;;107685;1251;22518;-79
2023/05/09 03:49:53;;;;;;;32.10;19.90;;;;;;;;;;107686;1253;22525;-80
2023/05/09 03:52:20;;;;;;;28.60;16.20;;;;;;;;;;107656;1253;22522;-79
2023/05/09 03:54:46;;;;;;;31.10;15.40;;;;;;;;;;107641;1251;22511;-76
2023/05/09 03:57:12;;;;;;;27.80;15.80;;;;;;;;;;107668;1253;22616;-78
2023/05/09 03:59:39;;;;;;;25.10;16.40;;;;;;;;;;107653;1253;26351;-79
2023/05/09 04:02:05;;;;;;;30.20;18.00;;;;;;;;;;107725;1253;22533;-79
2023/05/09 04:04:32;;;;;;;30.60;17.40;;;;;;;;;;107638;1251;25446;-76
2023/05/09 04:06:58;;;;;;;26.10;16.20;;;;;;;;;;107707;1253;25529;-76
2023/05/09 04:09:26;;;;;;;29.60;16.90;;;;;;;;;;107617;1253;23376;-79
2023/05/09 04:11:52;;;;;;;23.90;15.70;;;;;;;;;;107628;1251;22778;-80
2023/05/09 04:14:18;;;;;;;27.40;16.80;;;;;;;;;;107695;1249;22511;-79
2023/05/09 04:16:45;;;;;;;27.90;14.80;;;;;;;;;;107668;1251;25366;-76
2023/05/09 04:19:11;;;;;;;22.70;13.50;;;;;;;;;;107641;1251;22580;-75
2023/05/09 04:21:37;;;;;;;24.50;15.20;;;;;;;;;;107652;1254;22525;-77
2023/05/09 04:24:04;;;;;;;26.40;16.10;;;;;;;;;;107652;1251;23129;-75
2023/05/09 04:26:30;;;;;;;27.70;16.20;;;;;;;;;;107641;1255;25407;-79
2023/05/09 04:28:57;;;;;;;21.40;14.40;;;;;;;;;;107718;1253;22529;-79
2023/05/09 04:31:23;;;;;;;24.80;14.50;;;;;;;;;;107854;1247;24269;-76
2023/05/09 04:33:50;;;;;;;23.60;14.10;;;;;;;;;;107879;1253;22534;-77
2023/05/09 04:36:16;;;;;;;34.00;17.30;;;;;;;;;;107810;1250;22994;-79
2023/05/09 04:38:43;;;;;;;28.60;16.00;;;;;;;;;;107861;1248;22550;-77
2023/05/09 04:41:09;;;;;;;25.90;16.60;;;;;;;;;;107848;1253;22525;-76
2023/05/09 04:43:36;;;;;;;29.40;16.40;;;;;;;;;;107894;1251;25271;-79
2023/05/09 04:46:02;;;;;;;23.50;15.50;;;;;;;;;;107889;1248;22638;-80
2023/05/09 04:48:28;;;;;;;29.30;19.50;;;;;;;;;;107913;1253;25382;-76
2023/05/09 04:50:55;;;;;;;37.00;21.20;;;;;;;;;;107836;1248;22523;-79
2023/05/09 04:53:21;;;;;;;31.90;19.50;;;;;;;;;;107900;1248;23373;-79
2023/05/09 04:55:48;;;;;;;37.10;19.50;;;;;;;;;;107940;1248;23261;-80
2023/05/09 04:58:15;;;;;;;36.50;17.60;;;;;;;;;;107795;1251;22531;-77
2023/05/09 05:00:41;;;;;;;30.80;17.50;;;;;;;;;;107704;1253;24227;-77
2023/05/09 05:03:07;;;;;;;26.20;16.60;;;;;;;;;;107944;1248;25290;-78
2023/05/09 05:05:34;;;;;;;28.20;19.10;;;;;;;;;;107926;1248;25268;-76
2023/05/09 05:08:00;;;;;;;40.90;21.50;;;;;;;;;;108998;1252;25491;-79
2023/05/09 05:10:26;;;;;;;37.50;24.20;;;;;;;;;;107822;1251;24180;-79
2023/05/09 05:12:53;;;;;;;46.30;30.50;;;;;;;;;;107672;1254;22525;-76
2023/05/09 05:15:19;;;;;;;55.80;32.30;;;;;;;;;;107670;1251;25312;-76
2023/05/09 05:17:45;;;;;;;51.60;32.80;;;;;;;;;;107651;1251;23772;-79
2023/05/09 05:20:12;;;;;;;40.80;27.10;;;;;;;;;;107648;1251;22576;-79
2023/05/09 05:22:38;;;;;;;34.90;21.90;;;;;;;;;;107677;1251;25376;-78
2023/05/09 05:25:05;;;;;;;35.60;20.90;;;;;;;;;;107780;1249;22556;-76
2023/05/09 05:27:31;;;;;;;35.10;22.40;;;;;;;;;;107648;1251;25217;-77
2023/05/09 05:29:58;;;;;;;39.60;22.00;;;;;;;;;;107690;1251;22553;-79
2023/05/09 05:32:24;;;;;;;33.00;20.70;;;;;;;;;;107646;1251;24340;-79
2023/05/09 05:34:50;;;;;;;36.40;22.70;;;;;;;;;;107671;1253;22541;-79
2023/05/09 05:37:17;;;;;;;29.40;21.70;;;;;;;;;;108347;1251;22552;-76
2023/05/09 05:39:43;;;;;;;32.10;20.20;;;;;;;;;;107657;1253;22530;-76
2023/05/09 05:42:09;;;;;;;41.50;23.70;;;;;;;;;;107622;1251;22550;-78
2023/05/09 05:44:36;;;;;;;41.20;25.80;;;;;;;;;;107721;1252;25471;-79
2023/05/09 05:47:02;;;;;;;39.50;25.90;;;;;;;;;;108690;1251;22488;-77
2023/05/09 05:49:28;;;;;;;51.60;24.00;;;;;;;;;;107650;1248;22871;-79
2023/05/09 05:51:54;;;;;;;43.60;24.90;;;;;;;;;;107667;1252;25302;-80
2023/05/09 05:54:21;;;;;;;41.80;25.60;;;;;;;;;;107889;1248;23001;-79
2023/05/09 05:56:47;;;;;;;37.20;22.60;;;;;;;;;;107734;1251;23422;-79
2023/05/09 05:59:15;;;;;;;32.30;19.90;;;;;;;;;;107702;1253;22521;-79
2023/05/09 06:01:41;;;;;;;30.50;18.70;;;;;;;;;;108218;1251;25242;-77
2023/05/09 06:04:07;;;;;;;32.50;20.20;;;;;;;;;;107866;1250;22547;-79
2023/05/09 06:06:34;;;;;;;26.20;18.20;;;;;;;;;;107836;1251;24115;-76
2023/05/09 06:09:00;;;;;;;23.20;14.10;;;;;;;;;;108030;1251;22523;-76
2023/05/09 06:11:26;;;;;;;21.00;12.60;;;;;;;;;;108006;1251;22548;-76
2023/05/09 06:13:53;;;;;;;17.60;11.00;;;;;;;;;;108001;1248;22534;-79
2023/05/09 06:16:20;;;;;;;11.80;8.50;;;;;;;;;;107937;1250;24274;-79
2023/05/09 06:18:46;;;;;;;10.80;7.50;;;;;;;;;;107824;1251;25268;-79
2023/05/09 06:21:13;;;;;;;10.20;6.40;;;;;;;;;;109328;1251;23724;-76
2023/05/09 06:23:39;;;;;;;11.30;7.00;;;;;;;;;;107765;1251;24230;-76
2023/05/09 06:26:05;;;;;;;14.70;8.00;;;;;;;;;;108222;1250;25354;-77
2023/05/09 06:28:32;;;;;;;8.60;6.10;;;;;;;;;;108292;1253;22540;-77
2023/05/09 06:30:59;;;;;;;10.10;5.70;;;;;;;;;;108259;1251;22506;-77
2023/05/09 06:33:25;;;;;;;8.60;6.60;;;;;;;;;;107923;1251;22953;-77
2023/05/09 06:35:52;;;;;;;16.40;7.80;;;;;;;;;;107797;1251;22589;-77
2023/05/09 06:38:18;;;;;;;9.80;5.30;;;;;;;;;;107878;1250;22560;-76
2023/05/09 06:40:45;;;;;;;9.50;5.60;;;;;;;;;;109164;1251;22154;-76
2023/05/09 06:43:11;;;;;;;7.20;5.40;;;;;;;;;;110143;1249;22688;-76
2023/05/09 06:45:37;;;;;;;9.30;5.50;;;;;;;;;;107917;1247;22531;-76
2023/05/09 06:48:04;;;;;;;10.40;4.80;;;;;;;;;;107765;1251;22831;-79
2023/05/09 06:50:30;;;;;;;6.80;4.60;;;;;;;;;;108007;1251;22524;-76
2023/05/09 06:52:57;;;;;;;9.00;5.70;;;;;;;;;;108232;1248;22505;-76
2023/05/09 06:55:23;;;;;;;10.30;6.80;;;;;;;;;;107988;1255;23081;-76
2023/05/09 06:57:49;;;;;;;8.40;6.20;;;;;;;;;;108299;1253;22570;-76
2023/05/09 07:00:16;;;;;;;9.90;5.40;;;;;;;;;;108380;1251;25313;-75
2023/05/09 07:02:42;;;;;;;9.70;6.10;;;;;;;;;;108287;1248;22504;-76
2023/05/09 07:05:09;;;;;;;8.20;5.60;;;;;;;;;;108221;1253;22514;-79
2023/05/09 07:07:35;;;;;;;10.50;6.90;;;;;;;;;;108104;1251;61215;-76
2023/05/09 07:10:03;;;;;;;6.90;4.70;;;;;;;;;;108070;1247;22560;-79
2023/05/09 07:12:30;;;;;;;6.20;4.90;;;;;;;;;;107947;1248;22566;-76
2023/05/09 07:14:56;;;;;;;7.10;4.70;;;;;;;;;;108080;1251;22590;-79
2023/05/09 07:17:23;;;;;;;7.20;4.10;;;;;;;;;;108242;1251;24229;-79
2023/05/09 07:19:50;;;;;;;11.40;6.90;;;;;;;;;;108412;1251;24966;-80
2023/05/09 07:22:16;;;;;;;7.50;4.60;;;;;;;;;;107921;1248;26474;-79
2023/05/09 07:24:43;;;;;;;6.40;5.00;;;;;;;;;;107760;1251;22523;-79
2023/05/09 07:27:09;;;;;;;8.50;5.00;;;;;;;;;;107762;1253;25386;-76
2023/05/09 07:29:36;;;;;;;6.60;4.60;;;;;;;;;;108021;1248;44864;-76
2023/05/09 07:32:02;;;;;;;9.30;6.10;;;;;;;;;;108231;1248;23886;-76
2023/05/09 07:34:29;;;;;;;8.90;4.70;;;;;;;;;;107921;1248;55677;-76
2023/05/09 07:36:57;;;;;;;6.40;3.80;;;;;;;;;;108140;1247;55817;-77
2023/05/09 07:39:23;;;;;;;5.60;3.80;;;;;;;;;;107810;1250;61269;-79
2023/05/09 07:41:49;;;;;;;6.80;3.00;;;;;;;;;;107711;1250;61218;-79
2023/05/09 07:44:16;;;;;;;7.20;3.50;;;;;;;;;;107875;1251;23059;-78
2023/05/09 07:46:42;;;;;;;5.70;3.70;;;;;;;;;;108009;1252;25259;-80
2023/05/09 07:49:09;;;;;;;4.30;3.20;;;;;;;;;;107989;1247;25375;-77
2023/05/09 07:51:35;;;;;;;7.10;2.70;;;;;;;;;;107762;1251;22648;-77
2023/05/09 07:54:01;;;;;;;5.40;2.90;;;;;;;;;;107735;1251;22521;-77
2023/05/09 07:56:28;;;;;;;4.70;3.30;;;;;;;;;;107701;1251;22513;-77
2023/05/09 07:58:54;;;;;;;4.00;3.00;;;;;;;;;;107860;1251;25201;-77
2023/05/09 08:01:20;;;;;;;3.70;3.00;;;;;;;;;;107917;1250;22518;-78
2023/05/09 08:03:47;;;;;;;4.80;3.00;;;;;;;;;;107728;1251;22603;-77
2023/05/09 08:06:13;;;;;;;4.00;2.90;;;;;;;;;;107886;1248;24246;-80
2023/05/09 08:08:39;;;;;;;4.70;2.60;;;;;;;;;;107912;1248;22617;-77
2023/05/09 08:11:06;;;;;;;9.40;4.40;;;;;;;;;;107963;1251;22645;-78
2023/05/09 08:13:32;;;;;;;20.10;4.80;;;;;;;;;;107782;1249;23328;-76
2023/05/09 08:15:59;;;;;;;5.10;3.60;;;;;;;;;;107865;1251;24078;-76
2023/05/09 08:18:26;;;;;;;4.90;3.50;;;;;;;;;;107978;1248;22524;-76
2023/05/09 08:20:52;;;;;;;7.10;3.90;;;;;;;;;;107894;1251;25370;-76
2023/05/09 08:23:18;;;;;;;3.70;3.30;;;;;;;;;;107755;1250;24199;-79
2023/05/09 08:25:45;;;;;;;9.50;2.80;;;;;;;;;;107795;1253;23553;-76
2023/05/09 08:28:11;;;;;;;5.20;2.40;;;;;;;;;;107977;1247;24237;-76
2023/05/09 08:30:38;;;;;;;3.60;2.10;;;;;;;;;;107996;1247;22534;-80
2023/05/09 08:33:04;;;;;;;4.90;2.60;;;;;;;;;;108335;1251;22510;-76
2023/05/09 08:35:31;;;;;;;5.80;2.40;;;;;;;;;;108253;1251;25016;-79
2023/05/09 08:37:57;;;;;;;4.20;3.10;;;;;;;;;;107920;1251;22990;-79
2023/05/09 08:40:23;;;;;;;7.50;4.70;;;;;;;;;;107880;1251;24275;-79
2023/05/09 08:42:49;;;;;;;3.80;2.50;;;;;;;;;;107778;1249;25265;-77
2023/05/09 08:45:16;;;;;;;2.60;2.20;;;;;;;;;;107895;1247;22524;-75
2023/05/09 08:47:42;;;;;;;3.10;2.20;;;;;;;;;;107716;1251;25390;-76
2023/05/09 08:50:10;;;;;;;3.90;2.50;;;;;;;;;;107864;1250;22615;-76
2023/05/09 08:52:37;;;;;;;5.40;3.00;;;;;;;;;;107815;1251;22528;-79
2023/05/09 08:55:03;;;;;;;6.50;3.10;;;;;;;;;;107753;1251;22595;-79
2023/05/09 08:57:30;;;;;;;3.30;2.10;;;;;;;;;;107726;1251;22617;-79
2023/05/09 08:59:57;;;;;;;5.30;2.20;;;;;;;;;;107970;1247;22600;-79
2023/05/09 09:02:23;;;;;;;4.30;2.40;;;;;;;;;;107876;1248;22499;-77
2023/05/09 09:04:50;;;;;;;5.00;1.90;;;;;;;;;;107983;1247;22630;-76
2023/05/09 09:07:17;;;;;;;6.40;2.30;;;;;;;;;;107951;1250;22511;-79
2023/05/09 09:09:44;;;;;;;41.80;5.80;;;;;;;;;;107974;1251;24885;-78
2023/05/09 09:12:11;;;;;;;2.30;1.60;;;;;;;;;;107911;1251;24180;-79
2023/05/09 09:14:37;;;;;;;3.30;1.70;;;;;;;;;;107985;1250;24186;-76
2023/05/09 09:17:05;;;;;;;1.70;1.50;;;;;;;;;;107780;1251;22550;-76
2023/05/09 09:19:31;;;;;;;4.90;1.90;;;;;;;;;;107948;1248;25381;-79
2023/05/09 09:21:58;;;;;;;2.60;1.70;;;;;;;;;;107966;1247;22821;-76
2023/05/09 09:24:24;;;;;;;2.30;1.70;;;;;;;;;;108012;1248;22537;-78
2023/05/09 09:26:51;;;;;;;3.50;2.10;;;;;;;;;;107889;1248;22521;-79
2023/05/09 09:29:17;;;;;;;5.60;2.30;;;;;;;;;;107822;1249;25339;-79
2023/05/09 09:31:44;;;;;;;7.40;2.00;;;;;;;;;;107930;1248;22504;-77
2023/05/09 09:34:11;;;;;;;5.30;2.30;;;;;;;;;;107820;1251;22550;-79
2023/05/09 09:36:37;;;;;;;2.50;1.70;;;;;;;;;;107880;1252;22559;-77
2023/05/09 09:39:04;;;;;;;4.40;1.90;;;;;;;;;;107982;1251;22553;-79
2023/05/09 09:41:31;;;;;;;2.10;1.70;;;;;;;;;;107886;1251;25386;-77
2023/05/09 09:43:58;;;;;;;4.20;1.90;;;;;;;;;;107781;1253;22531;-80
2023/05/09 09:46:24;;;;;;;5.20;1.70;;;;;;;;;;107798;1253;22922;-77
2023/05/09 09:48:53;;;;;;;3.30;2.00;;;;;;;;;;107786;1251;23475;-79
2023/05/09 09:51:20;;;;;;;2.10;1.60;;;;;;;;;;107656;1249;22639;-76
2023/05/09 09:53:46;;;;;;;2.70;1.90;;;;;;;;;;107743;1248;23281;-78
2023/05/09 09:56:13;;;;;;;4.50;1.80;;;;;;;;;;107837;1250;24262;-79
2023/05/09 09:58:39;;;;;;;2.50;1.80;;;;;;;;;;107783;1249;24236;-80
2023/05/09 10:01:09;;;;;;;2.50;1.90;;;;;;;;;;107782;1248;24304;-77
2023/05/09 10:03:39;;;;;;;3.00;1.80;;;;;;;;;;107803;1248;24216;-80
2023/05/09 10:06:12;;;;;;;3.70;1.40;;;;;;;;;;107835;1248;22517;-79
2023/05/09 10:08:41;;;;;;;2.80;1.60;;;;;;;;;;107716;1250;22534;-79
2023/05/09 10:11:07;;;;;;;3.10;1.90;;;;;;;;;;107736;1250;24197;-80
2023/05/09 10:13:35;;;;;;;4.00;2.20;;;;;;;;;;107745;1250;25447;-80
2023/05/09 10:16:02;;;;;;;6.20;2.50;;;;;;;;;;107763;1250;22623;-79
2023/05/09 10:18:32;;;;;;;2.50;1.80;;;;;;;;;;107699;1248;25366;-76
2023/05/09 10:21:00;;;;;;;2.10;1.50;;;;;;;;;;107802;1250;24076;-79
2023/05/09 10:23:27;;;;;;;1.70;1.30;;;;;;;;;;107816;1247;23128;-76
2023/05/09 10:25:59;;;;;;;2.20;1.50;;;;;;;;;;107692;1248;22525;-79
2023/05/09 10:28:27;;;;;;;2.50;1.50;;;;;;;;;;107807;1250;23330;-77
2023/05/09 10:30:53;;;;;;;1.60;1.30;;;;;;;;;;107826;1249;24249;-80
2023/05/09 10:33:20;;;;;;;2.90;1.70;;;;;;;;;;107679;1251;27404;-77
2023/05/09 10:35:46;;;;;;;2.20;1.30;;;;;;;;;;107624;1256;22549;-79
2023/05/09 10:38:13;;;;;;;3.40;1.40;;;;;;;;;;107699;1250;22513;-77
2023/05/09 10:40:39;;;;;;;3.00;1.40;;;;;;;;;;108244;1248;25477;-76
2023/05/09 10:43:06;;;;;;;5.00;1.90;;;;;;;;;;107930;1251;22617;-77
2023/05/09 10:45:33;;;;;;;3.40;1.40;;;;;;;;;;107769;1253;22593;-76
2023/05/09 10:48:00;;;;;;;2.50;1.30;;;;;;;;;;107729;1248;22766;-79
2023/05/09 10:50:26;;;;;;;2.10;1.70;;;;;;;;;;107951;1250;22518;-79
2023/05/09 10:53:06;;;;;;;2.80;1.60;;;;;;;;;;107698;1251;24240;-79
2023/05/09 10:55:46;;;;;;;2.00;1.60;;;;;;;;;;108682;1248;25478;-76
2023/05/09 10:58:26;;;;;;;2.00;1.70;;;;;;;;;;107839;1248;22585;-77
2023/05/09 11:00:53;;;;;;;4.20;1.80;;;;;;;;;;107793;1251;22560;-79
2023/05/09 11:03:20;;;;;;;3.80;1.30;;;;;;;;;;107906;1248;25437;-78
2023/05/09 11:05:46;;;;;;;4.30;1.60;;;;;;;;;;107885;1250;25380;-79
2023/05/09 11:08:26;;;;;;;3.20;1.80;;;;;;;;;;108978;1247;22322;-77
2023/05/09 11:10:55;;;;;;;3.90;2.00;;;;;;;;;;110913;1249;22866;-77
2023/05/09 11:13:22;;;;;;;5.90;2.10;;;;;;;;;;110932;1247;22299;-77
2023/05/09 11:16:09;;;;;;;2.70;1.60;;;;;;;;;;110889;1249;22431;-77
2023/05/09 11:18:48;;;;;;;5.50;2.10;;;;;;;;;;109190;1250;22826;-78
2023/05/09 11:21:14;;;;;;;7.90;2.20;;;;;;;;;;107812;1250;25442;-76
2023/05/09 11:23:40;;;;;;;4.30;1.30;;;;;;;;;;107845;1248;25315;-76
2023/05/09 11:26:07;;;;;;;1.90;1.30;;;;;;;;;;107708;1248;22991;-76
2023/05/09 11:28:35;;;;;;;2.50;1.40;;;;;;;;;;107753;1250;22672;-77
2023/05/09 11:31:08;;;;;;;1.40;1.20;;;;;;;;;;108648;1248;26406;-79
2023/05/09 11:33:35;;;;;;;5.80;2.50;;;;;;;;;;107782;1248;22544;-76
2023/05/09 11:36:24;;;;;;;3.10;1.70;;;;;;;;;;107834;1247;22532;-77
2023/05/09 11:39:09;;;;;;;2.60;1.60;;;;;;;;;;107822;1248;24211;-79
2023/05/09 11:41:38;;;;;;;3.70;1.40;;;;;;;;;;107802;1250;24316;-79
2023/05/09 11:44:11;;;;;;;1.90;1.50;;;;;;;;;;107827;1248;22524;-77
2023/05/09 11:46:37;;;;;;;4.50;1.30;;;;;;;;;;107994;1250;24878;-77
2023/05/09 11:49:05;;;;;;;3.40;1.50;;;;;;;;;;107779;1247;25346;-77
2023/05/09 11:51:33;;;;;;;3.70;1.40;;;;;;;;;;107871;1248;22465;-80
2023/05/09 11:54:00;;;;;;;4.30;1.70;;;;;;;;;;107796;1247;22532;-80
2023/05/09 11:56:26;;;;;;;2.50;1.70;;;;;;;;;;107805;1250;22518;-77
2023/05/09 11:58:52;;;;;;;2.90;1.50;;;;;;;;;;107703;1250;22615;-77
2023/05/09 12:01:19;;;;;;;2.10;1.60;;;;;;;;;;107726;1253;22529;-77
2023/05/09 12:03:46;;;;;;;3.80;1.30;;;;;;;;;;107714;1248;24294;-79
2023/05/09 12:06:13;;;;;;;2.20;1.30;;;;;;;;;;107759;1250;24187;-77
2023/05/09 12:08:40;;;;;;;2.40;1.50;;;;;;;;;;107648;1250;22511;-79
2023/05/09 12:11:07;;;;;;;3.50;1.40;;;;;;;;;;107897;1252;22547;-79
2023/05/09 12:13:34;;;;;;;5.10;1.80;;;;;;;;;;107866;1247;25293;-77
2023/05/09 12:16:01;;;;;;;3.70;2.00;;;;;;;;;;107906;1247;24110;-79
2023/05/09 12:18:27;;;;;;;3.60;1.60;;;;;;;;;;107674;1247;22550;-80
2023/05/09 12:20:53;;;;;;;2.00;1.30;;;;;;;;;;107886;1247;25306;-80
2023/05/09 12:23:20;;;;;;;3.00;1.70;;;;;;;;;;107655;1250;22646;-77
2023/05/09 12:25:53;;;;;;;2.70;1.80;;;;;;;;;;107817;1247;22537;-80
2023/05/09 12:28:20;;;;;;;3.80;1.90;;;;;;;;;;107656;1248;25863;-80
2023/05/09 12:30:46;;;;;;;5.80;1.80;;;;;;;;;;107724;1247;22633;-80
2023/05/09 12:33:13;;;;;;;4.60;1.40;;;;;;;;;;107737;1250;22551;-77
2023/05/09 12:35:39;;;;;;;2.20;1.40;;;;;;;;;;107698;1250;23820;-77
2023/05/09 12:38:05;;;;;;;3.00;1.20;;;;;;;;;;107751;1248;23111;-77
2023/05/09 12:40:32;;;;;;;3.10;1.50;;;;;;;;;;107789;1250;22605;-80
2023/05/09 12:43:01;;;;;;;3.50;1.40;;;;;;;;;;107769;1247;22569;-80
2023/05/09 12:45:27;;;;;;;;;;;;;;;;;;110898;1248;22485;-80
2023/05/09 12:47:55;;;;;;;4.10;1.50;;;;;;;;;;108271;1248;24071;-80
2023/05/09 12:50:21;;;;;;;3.20;1.60;;;;;;;;;;108011;1248;22953;-79
2023/05/09 12:52:49;;;;;;;6.40;1.70;;;;;;;;;;107737;1248;22570;-80
2023/05/09 12:55:17;;;;;;;1.90;1.50;;;;;;;;;;107751;1251;22654;-77
2023/05/09 12:57:48;;;;;;;2.80;1.50;;;;;;;;;;108020;1247;22535;-80
2023/05/09 13:00:16;;;;;;;2.00;1.50;;;;;;;;;;107757;1255;23127;-80
2023/05/09 13:02:43;;;;;;;3.10;1.80;;;;;;;;;;107933;1250;22518;-77
2023/05/09 13:05:10;;;;;;;2.00;1.40;;;;;;;;;;107907;1249;25377;-77
2023/05/09 13:07:43;;;;;;;1.80;1.50;;;;;;;;;;107836;1250;22630;-77
2023/05/09 13:10:10;;;;;;;4.00;1.70;;;;;;;;;;107909;1249;25392;-80
2023/05/09 13:12:37;;;;;;;1.90;1.50;;;;;;;;;;107882;1247;23746;-78
2023/05/09 13:15:04;;;;;;;3.80;1.70;;;;;;;;;;107917;1248;22980;-77
2023/05/09 13:17:31;;;;;;;2.80;2.00;;;;;;;;;;107859;1248;25384;-77
2023/05/09 13:19:57;;;;;;;3.70;1.70;;;;;;;;;;107925;1250;24387;-77
2023/05/09 13:22:23;;;;;;;2.60;2.00;;;;;;;;;;108011;1250;23632;-80
2023/05/09 13:24:50;;;;;;;3.60;1.80;;;;;;;;;;108199;1247;22683;-77
2023/05/09 13:27:17;;;;;;;5.20;2.60;;;;;;;;;;108342;1251;25490;-79
2023/05/09 13:29:43;;;;;;;3.20;2.20;;;;;;;;;;108200;1253;22528;-80
2023/05/09 13:32:09;;;;;;;4.00;1.90;;;;;;;;;;108272;1250;22603;-77
2023/05/09 13:34:35;;;;;;;3.00;2.00;;;;;;;;;;107987;1250;23200;-78
2023/05/09 13:37:02;;;;;;;2.70;1.70;;;;;;;;;;108078;1248;24218;-76
2023/05/09 13:39:29;;;;;;;2.30;1.60;;;;;;;;;;108146;1251;22534;-79
2023/05/09 13:41:56;;;;;;;3.50;2.40;;;;;;;;;;107897;1250;22954;-76
2023/05/09 13:44:25;;;;;;;3.10;1.90;;;;;;;;;;108147;1248;25464;-76
2023/05/09 13:46:51;;;;;;;5.60;1.90;;;;;;;;;;107864;1253;22520;-76
2023/05/09 13:49:18;;;;;;;2.30;1.60;;;;;;;;;;108220;1250;22539;-79
2023/05/09 13:51:44;;;;;;;1.90;1.70;;;;;;;;;;108183;1251;23593;-76
2023/05/09 13:54:11;;;;;;;4.80;2.00;;;;;;;;;;108080;1251;22540;-77
2023/05/09 13:56:38;;;;;;;10.80;2.10;;;;;;;;;;108083;1249;23388;-78
2023/05/09 13:59:05;;;;;;;4.10;1.70;;;;;;;;;;107739;1250;233832;-79
2023/05/09 14:01:33;;;;;;;3.20;1.70;;;;;;;;;;107822;1253;25227;-77
2023/05/09 14:03:59;;;;;;;5.50;2.60;;;;;;;;;;107813;1248;24183;-79
2023/05/09 14:06:26;;;;;;;3.50;1.60;;;;;;;;;;107819;1250;22746;-77
2023/05/09 14:08:53;;;;;;;6.00;1.50;;;;;;;;;;107820;1250;22579;-79
2023/05/09 14:11:20;;;;;;;4.30;2.10;;;;;;;;;;107766;1250;23744;-77
2023/05/09 14:13:46;;;;;;;3.00;1.90;;;;;;;;;;107928;1250;22705;-79
2023/05/09 14:16:13;;;;;;;3.90;2.80;;;;;;;;;;108168;1249;23230;-76
2023/05/09 14:18:39;;;;;;;3.10;2.20;;;;;;;;;;108174;1250;23236;-80